Time;durP1;ratioP1;P1;durP2;ratioP2;P2;SDS_P1;SDS_P2;PMS_P1;PMS_P2;Temp;Humidity;BMP_temperature;BMP_pressure;BME280_temperature;BME280_humidity;BME280_pressure;Samples;Min_cycle;Max_cycle;Signal;HPM_P1;HPM_P2
2022/07/29 00:02:08;;;;;;;1999.90;999.90;;;19.00;99.90;;;;;;5012672;28;20018;-74
2022/07/29 00:04:35;;;;;;;1999.90;999.90;;;19.00;99.90;;;;;;5012903;28;20034;-75
2022/07/29 00:07:01;;;;;;;1999.90;999.90;;;18.90;99.90;;;;;;5013078;28;20026;-72
2022/07/29 00:09:27;;;;;;;1999.90;999.90;;;18.90;99.90;;;;;;5012850;28;20505;-72
2022/07/29 00:11:54;;;;;;;1999.90;999.90;;;18.80;99.90;;;;;;5012237;28;20022;-74
2022/07/29 00:14:20;;;;;;;1999.90;999.90;;;18.70;99.90;;;;;;5012787;28;20117;-74
2022/07/29 00:16:46;;;;;;;1999.90;999.90;;;18.70;99.90;;;;;;5012815;28;20097;-74
2022/07/29 00:19:11;;;;;;;1999.90;999.90;;;18.70;99.90;;;;;;5012729;28;20491;-72
2022/07/29 00:21:37;;;;;;;1999.90;999.90;;;18.70;99.90;;;;;;5012633;28;20045;-73
2022/07/29 00:24:03;;;;;;;1999.90;999.90;;;18.70;99.90;;;;;;5012811;28;20417;-75
2022/07/29 00:26:31;;;;;;;1999.90;999.90;;;18.80;99.90;;;;;;5012718;28;20392;-75
2022/07/29 00:29:00;;;;;;;1999.90;999.90;;;18.80;99.90;;;;;;5012562;28;20022;-73
2022/07/29 00:31:26;;;;;;;1999.90;999.90;;;18.90;99.90;;;;;;5012477;28;20025;-73
2022/07/29 00:33:52;;;;;;;1999.90;999.90;;;19.00;99.90;;;;;;5012580;28;20106;-72
2022/07/29 00:36:17;;;;;;;1999.90;999.90;;;19.00;99.90;;;;;;5011365;28;20030;-75
2022/07/29 00:38:45;;;;;;;1999.90;999.90;;;19.10;99.90;;;;;;5011517;28;20090;-76
2022/07/29 00:41:11;;;;;;;1999.90;999.90;;;19.30;99.90;;;;;;5012365;28;20068;-72
2022/07/29 00:43:37;;;;;;;1999.90;999.90;;;19.30;99.90;;;;;;5014185;28;20030;-72
2022/07/29 00:46:03;;;;;;;1999.90;999.90;;;19.40;99.90;;;;;;5016237;28;20040;-73
2022/07/29 00:48:29;;;;;;;1999.90;999.90;;;19.40;99.90;;;;;;5016271;28;20037;-75
2022/07/29 00:50:57;;;;;;;1999.90;999.90;;;19.50;99.90;;;;;;5016073;28;20041;-75
2022/07/29 00:53:24;;;;;;;1999.90;999.90;;;19.50;99.90;;;;;;5015986;28;20460;-75
2022/07/29 00:55:50;;;;;;;1999.90;999.90;;;19.50;99.90;;;;;;5015377;28;20021;-72
2022/07/29 00:58:16;;;;;;;1999.90;999.90;;;19.50;99.90;;;;;;5016192;28;20105;-73
2022/07/29 01:00:42;;;;;;;1999.90;999.90;;;19.50;99.90;;;;;;5015947;28;20540;-75
2022/07/29 01:03:08;;;;;;;1999.90;999.90;;;19.50;99.90;;;;;;5014663;28;20383;-73
2022/07/29 01:05:35;;;;;;;1999.90;999.90;;;19.50;99.90;;;;;;5015791;28;20036;-75
2022/07/29 01:08:02;;;;;;;1999.90;999.90;;;19.50;99.90;;;;;;5015716;28;20018;-75
2022/07/29 01:10:29;;;;;;;1999.90;999.90;;;19.50;99.90;;;;;;5015831;28;20025;-75
2022/07/29 01:12:57;;;;;;;1999.90;999.90;;;19.60;99.90;;;;;;5015137;28;20473;-72
2022/07/29 01:15:24;;;;;;;1999.90;999.90;;;19.50;99.90;;;;;;5015079;28;20025;-75
2022/07/29 01:18:18;;;;;;;1999.90;999.90;;;19.50;99.90;;;;;;5014897;28;20490;-73
2022/07/29 01:21:02;;;;;;;1999.90;999.90;;;19.60;99.90;;;;;;5015210;28;20018;-76
2022/07/29 01:23:40;;;;;;;1999.90;999.90;;;19.50;99.90;;;;;;5015658;28;20036;-75
2022/07/29 01:26:27;;;;;;;1999.90;999.90;;;19.60;99.90;;;;;;5015365;28;20017;-73
2022/07/29 01:28:55;;;;;;;1999.90;999.90;;;19.60;99.90;;;;;;5015254;28;20481;-75
2022/07/29 01:31:47;;;;;;;1999.90;999.90;;;19.60;99.90;;;;;;5015421;28;20393;-75
2022/07/29 01:34:36;;;;;;;1999.90;999.90;;;19.60;99.90;;;;;;5007688;28;20042;-73
2022/07/29 01:37:06;;;;;;;1999.90;999.90;;;19.60;99.90;;;;;;5015097;28;20014;-75
2022/07/29 01:39:35;;;;;;;1999.90;999.90;;;19.50;99.90;;;;;;5015072;28;20022;-73
2022/07/29 01:42:12;;;;;;;1999.90;999.90;;;19.50;99.90;;;;;;5014972;28;20029;-76
2022/07/29 01:44:58;;;;;;;1999.90;999.90;;;19.50;99.90;;;;;;5015124;28;20088;-75
2022/07/29 01:47:31;;;;;;;1999.90;999.90;;;19.50;99.90;;;;;;5015071;28;20374;-73
2022/07/29 01:49:59;;;;;;;1999.90;999.90;;;19.50;99.90;;;;;;5014641;28;20057;-73
2022/07/29 01:52:42;;;;;;;1999.90;999.90;;;19.50;99.90;;;;;;5014786;28;20030;-75
2022/07/29 01:55:14;;;;;;;1999.90;999.90;;;19.50;99.90;;;;;;5014814;28;20030;-76
2022/07/29 01:57:43;;;;;;;1999.90;999.90;;;19.50;99.90;;;;;;5014299;28;20389;-73
2022/07/29 02:00:10;;;;;;;1999.90;999.90;;;19.50;99.90;;;;;;5014774;28;20094;-73
2022/07/29 02:02:40;;;;;;;1999.90;999.90;;;19.50;99.90;;;;;;5014399;28;20022;-73
2022/07/29 02:05:10;;;;;;;1999.90;999.90;;;19.50;99.90;;;;;;5014651;28;20026;-73
2022/07/29 02:07:37;;;;;;;1999.90;999.90;;;19.50;99.90;;;;;;5004533;28;20486;-73
2022/07/29 02:10:06;;;;;;;1999.90;999.90;;;19.50;99.90;;;;;;4995275;28;20026;-76
2022/07/29 02:12:32;;;;;;;1999.90;999.90;;;19.50;99.90;;;;;;4994443;28;20030;-75
2022/07/29 02:15:01;;;;;;;1999.90;999.90;;;19.50;99.90;;;;;;4994906;28;20022;-73
2022/07/29 02:17:32;;;;;;;1999.90;999.90;;;19.50;99.90;;;;;;4994739;28;20030;-75
2022/07/29 02:20:01;;;;;;;1999.90;999.90;;;19.50;99.90;;;;;;4994832;28;20026;-73
2022/07/29 02:22:30;;;;;;;1999.90;999.90;;;19.50;99.90;;;;;;4994583;28;20036;-76
2022/07/29 02:24:58;;;;;;;1999.90;999.90;;;19.50;99.90;;;;;;4994824;28;20065;-75
2022/07/29 02:27:26;;;;;;;1999.90;999.90;;;19.50;99.90;;;;;;4994485;28;20080;-75
2022/07/29 02:29:54;;;;;;;1999.90;999.90;;;19.50;99.90;;;;;;4994773;28;20030;-76
2022/07/29 02:32:22;;;;;;;1999.90;999.90;;;19.50;99.90;;;;;;4994720;28;20034;-73
2022/07/29 02:34:50;;;;;;;1999.90;999.90;;;19.50;99.90;;;;;;4994557;28;20076;-75
2022/07/29 02:37:18;;;;;;;1999.90;999.90;;;19.50;99.90;;;;;;4994490;28;20037;-73
2022/07/29 02:39:45;;;;;;;1999.90;999.90;;;19.50;99.90;;;;;;4994898;28;20023;-74
2022/07/29 02:42:14;;;;;;;1999.90;999.90;;;19.50;99.90;;;;;;4994143;28;20375;-73
2022/07/29 02:44:40;;;;;;;1999.90;999.90;;;19.50;99.90;;;;;;4993428;28;20057;-73
2022/07/29 02:47:29;;;;;;;1999.90;999.90;;;19.40;99.90;;;;;;4994431;28;20120;-75
2022/07/29 02:49:57;;;;;;;1999.90;999.90;;;19.50;99.90;;;;;;4994219;28;20105;-73
2022/07/29 02:52:30;;;;;;;1999.90;999.90;;;19.50;99.90;;;;;;4993791;28;20038;-73
2022/07/29 02:55:29;;;;;;;1999.90;999.90;;;19.50;99.90;;;;;;4994104;28;20481;-73
2022/07/29 02:58:01;;;;;;;1999.90;999.90;;;19.50;99.90;;;;;;4993303;28;20097;-75
2022/07/29 03:00:29;;;;;;;1999.90;999.90;;;19.50;99.90;;;;;;4994248;28;20393;-74
2022/07/29 03:02:58;;;;;;;1999.90;999.90;;;19.50;99.90;;;;;;5004377;28;20489;-75
2022/07/29 03:05:25;;;;;;;1999.90;999.90;;;19.50;99.90;;;;;;5013305;28;20561;-73
2022/07/29 03:08:17;;;;;;;1999.90;999.90;;;19.50;99.90;;;;;;5000737;28;20393;-73
2022/07/29 03:10:45;;;;;;;1999.90;999.90;;;19.50;99.90;;;;;;4991076;28;20066;-75
2022/07/29 03:13:12;;;;;;;1999.90;999.90;;;19.50;99.90;;;;;;4993611;28;20029;-73
2022/07/29 03:15:39;;;;;;;1999.90;999.90;;;19.50;99.90;;;;;;4994053;28;20014;-76
2022/07/29 03:18:06;;;;;;;1999.90;999.90;;;19.50;99.90;;;;;;4993843;28;20027;-76
2022/07/29 03:20:32;;;;;;;1999.90;999.90;;;19.50;99.90;;;;;;4993705;28;20019;-73
2022/07/29 03:22:57;;;;;;;1999.90;999.90;;;19.50;99.90;;;;;;4993606;28;20513;-75
2022/07/29 03:25:23;;;;;;;1999.90;999.90;;;19.50;99.90;;;;;;4993637;28;20513;-73
2022/07/29 03:27:48;;;;;;;1999.90;999.90;;;19.50;99.90;;;;;;4993817;28;20375;-76
2022/07/29 03:30:15;;;;;;;1999.90;999.90;;;19.50;99.90;;;;;;4992128;28;20058;-73
2022/07/29 03:32:41;;;;;;;1999.90;999.90;;;19.50;99.90;;;;;;4993873;28;20022;-73
2022/07/29 03:35:07;;;;;;;1999.90;999.90;;;19.40;99.90;;;;;;4993331;28;20022;-73
2022/07/29 03:37:33;;;;;;;1999.90;999.90;;;19.50;99.90;;;;;;4994770;28;20034;-75
2022/07/29 03:40:01;;;;;;;1999.90;999.90;;;19.50;99.90;;;;;;5013138;28;20022;-75
2022/07/29 03:42:35;;;;;;;1999.90;999.90;;;19.50;99.90;;;;;;5013021;28;20109;-75
2022/07/29 03:45:06;;;;;;;1999.90;999.90;;;19.40;99.90;;;;;;5013187;28;20022;-75
2022/07/29 03:47:33;;;;;;;1999.90;999.90;;;19.40;99.90;;;;;;5012045;28;20026;-75
2022/07/29 03:50:04;;;;;;;1999.90;999.90;;;19.40;99.90;;;;;;5012832;28;20513;-75
2022/07/29 03:52:30;;;;;;;1999.90;999.90;;;19.40;99.90;;;;;;5013163;28;20120;-75
2022/07/29 03:54:56;;;;;;;1999.90;999.90;;;19.40;99.90;;;;;;5011649;28;20117;-73
2022/07/29 03:57:27;;;;;;;1999.90;999.90;;;19.40;99.90;;;;;;5012786;28;20025;-73
2022/07/29 03:59:53;;;;;;;1999.90;999.90;;;19.40;99.90;;;;;;5012907;28;20021;-75
2022/07/29 04:02:20;;;;;;;1999.90;999.90;;;19.50;99.90;;;;;;5012448;28;20049;-75
2022/07/29 04:04:45;;;;;;;1999.90;999.90;;;19.50;99.90;;;;;;5012958;28;20423;-75
2022/07/29 04:07:15;;;;;;;1999.90;999.90;;;19.50;99.90;;;;;;5012869;28;20056;-75
2022/07/29 04:09:41;;;;;;;1999.90;999.90;;;19.50;99.90;;;;;;5011574;28;20037;-73
2022/07/29 04:12:07;;;;;;;1999.90;999.90;;;19.50;99.90;;;;;;5012731;28;20026;-73
2022/07/29 04:14:34;;;;;;;1999.90;999.90;;;19.40;99.90;;;;;;5011367;28;20097;-75
2022/07/29 04:17:04;;;;;;;1999.90;999.90;;;19.40;99.90;;;;;;5012123;28;20021;-75
2022/07/29 04:19:30;;;;;;;1999.90;999.90;;;19.40;99.90;;;;;;5016150;28;20384;-75
2022/07/29 04:21:58;;;;;;;1999.90;999.90;;;19.40;99.90;;;;;;5015004;28;20030;-73
2022/07/29 04:24:24;;;;;;;1999.90;999.90;;;19.40;99.90;;;;;;5016613;28;20079;-73
2022/07/29 04:26:49;;;;;;;1999.90;999.90;;;19.40;99.90;;;;;;5014000;28;20064;-74
2022/07/29 04:29:15;;;;;;;1999.90;999.90;;;19.40;99.90;;;;;;5016430;28;20041;-73
2022/07/29 04:31:42;;;;;;;1999.90;999.90;;;19.40;99.90;;;;;;5016497;28;20030;-76
2022/07/29 04:34:07;;;;;;;1999.90;999.90;;;19.50;99.90;;;;;;5016135;28;20110;-73
2022/07/29 04:36:33;;;;;;;1999.90;999.90;;;19.40;99.90;;;;;;5016304;28;20117;-76
2022/07/29 04:39:00;;;;;;;1999.90;999.90;;;19.40;99.90;;;;;;5016152;28;20080;-73
2022/07/29 04:41:26;;;;;;;1999.90;999.90;;;19.40;99.90;;;;;;5016306;28;20026;-75
2022/07/29 04:43:52;;;;;;;1999.90;999.90;;;19.40;99.90;;;;;;5016331;28;20069;-74
2022/07/29 04:46:17;;;;;;;1999.90;999.90;;;19.40;99.90;;;;;;5014841;28;20026;-75
2022/07/29 04:48:46;;;;;;;1999.90;999.90;;;19.40;99.90;;;;;;5015776;28;20076;-75
2022/07/29 04:51:11;;;;;;;1999.90;999.90;;;19.40;99.90;;;;;;5015919;28;20046;-73
2022/07/29 04:53:37;;;;;;;1999.90;999.90;;;19.40;99.90;;;;;;5015804;28;20088;-73
2022/07/29 04:56:03;;;;;;;1999.90;999.90;;;19.40;99.90;;;;;;5015723;28;20022;-73
2022/07/29 04:58:29;;;;;;;1999.90;999.90;;;19.30;99.90;;;;;;5015949;28;20022;-73
2022/07/29 05:00:54;;;;;;;1999.90;999.90;;;19.30;99.90;;;;;;5015862;28;20034;-75
2022/07/29 05:03:20;;;;;;;1999.90;999.90;;;19.40;99.90;;;;;;5015667;28;20060;-73
2022/07/29 05:05:46;;;;;;;1999.90;999.90;;;19.40;99.90;;;;;;5015914;28;20109;-73
2022/07/29 05:08:11;;;;;;;1999.90;999.90;;;19.40;99.90;;;;;;5000740;28;20026;-75
2022/07/29 05:10:37;;;;;;;1999.90;999.90;;;19.40;99.90;;;;;;4994407;28;20564;-75
2022/07/29 05:13:07;;;;;;;1999.90;999.90;;;19.40;99.90;;;;;;4995832;28;20037;-76
2022/07/29 05:15:34;;;;;;;1999.90;999.90;;;19.40;99.90;;;;;;4995487;28;20049;-73
2022/07/29 05:18:00;;;;;;;1999.90;999.90;;;19.40;99.90;;;;;;4995825;28;20109;-76
2022/07/29 05:20:28;;;;;;;1999.90;999.90;;;19.40;99.90;;;;;;4995755;28;20014;-75
2022/07/29 05:22:54;;;;;;;1999.90;999.90;;;19.50;99.90;;;;;;4994193;28;20078;-75
2022/07/29 05:25:20;;;;;;;1999.90;999.90;;;19.50;99.90;;;;;;4995628;28;20022;-75
2022/07/29 05:27:46;;;;;;;1999.90;999.90;;;19.50;99.90;;;;;;5006691;28;20109;-75
2022/07/29 05:30:12;;;;;;;1999.90;999.90;;;19.50;99.90;;;;;;5014781;28;20370;-75
2022/07/29 05:32:37;;;;;;;1999.90;999.90;;;19.60;99.90;;;;;;5015341;28;20545;-75
2022/07/29 05:35:03;;;;;;;1999.90;999.90;;;19.50;99.90;;;;;;5014602;28;20120;-75
2022/07/29 05:37:29;;;;;;;1999.90;999.90;;;19.50;99.90;;;;;;5012131;28;20036;-75
2022/07/29 05:39:54;;;;;;;1999.90;999.90;;;19.50;99.90;;;;;;4995563;28;20050;-75
2022/07/29 05:42:20;;;;;;;1999.90;999.90;;;19.50;99.90;;;;;;4995305;28;20472;-73
2022/07/29 05:44:47;;;;;;;1999.90;999.90;;;19.60;99.90;;;;;;4995360;28;20445;-73
2022/07/29 05:47:13;;;;;;;1999.90;999.90;;;19.60;99.90;;;;;;4995388;28;20069;-76
2022/07/29 05:49:38;;;;;;;1999.90;999.90;;;19.60;99.90;;;;;;4994894;28;20568;-75
2022/07/29 05:52:04;;;;;;;1999.90;999.90;;;19.60;99.90;;;;;;4993684;28;20030;-75
2022/07/29 05:54:30;;;;;;;1999.90;999.90;;;19.60;99.90;;;;;;4995294;28;20190;-73
2022/07/29 05:56:56;;;;;;;1999.90;999.90;;;19.70;99.90;;;;;;4994995;28;20088;-73
2022/07/29 05:59:21;;;;;;;1999.90;999.90;;;19.70;99.90;;;;;;4995367;28;20026;-74
2022/07/29 06:01:47;;;;;;;1999.90;999.90;;;19.70;99.90;;;;;;4996245;28;20030;-75
2022/07/29 06:04:13;;;;;;;1999.90;999.90;;;19.80;99.90;;;;;;5011664;28;20021;-75
2022/07/29 06:06:38;;;;;;;1999.90;999.90;;;19.80;99.90;;;;;;5011729;28;20033;-75
2022/07/29 06:09:04;;;;;;;1999.90;999.90;;;19.80;99.90;;;;;;4998496;28;20037;-73
2022/07/29 06:11:30;;;;;;;1999.90;999.90;;;19.90;99.90;;;;;;5013668;28;20033;-75
2022/07/29 06:13:55;;;;;;;1999.90;999.90;;;19.90;99.90;;;;;;5014227;28;20026;-73
2022/07/29 06:16:21;;;;;;;1999.90;999.90;;;20.00;99.90;;;;;;5013293;28;20070;-75
2022/07/29 06:18:46;;;;;;;1999.90;999.90;;;20.00;99.90;;;;;;5013954;28;20026;-75
2022/07/29 06:21:12;;;;;;;1999.90;999.90;;;20.10;99.90;;;;;;5013119;28;20449;-73
2022/07/29 06:23:38;;;;;;;1999.90;999.90;;;20.10;99.90;;;;;;5014062;28;20026;-73
2022/07/29 06:26:04;;;;;;;1999.90;999.90;;;20.20;99.90;;;;;;5014202;28;20038;-76
2022/07/29 06:28:30;;;;;;;1999.90;999.90;;;20.20;99.90;;;;;;5013614;28;20037;-73
2022/07/29 06:30:56;;;;;;;1999.90;999.90;;;20.30;99.90;;;;;;5013988;28;20507;-73
2022/07/29 06:33:21;;;;;;;1999.90;999.90;;;20.50;99.90;;;;;;5013828;28;20515;-73
2022/07/29 06:35:49;;;;;;;1999.90;999.90;;;20.60;99.90;;;;;;5013612;28;20049;-73
2022/07/29 06:38:15;;;;;;;1999.90;999.90;;;20.70;99.90;;;;;;5011333;28;20400;-74
2022/07/29 06:43:33;;;;;;;1999.90;999.90;;;20.60;99.90;;;;;;5013820;28;20076;-76
2022/07/29 06:46:06;;;;;;;1999.90;999.90;;;20.70;99.90;;;;;;5013390;28;20400;-75
2022/07/29 06:48:32;;;;;;;;;;;20.80;99.90;;;;;;5012400;28;20097;-73
2022/07/29 06:50:58;;;;;;;1999.90;999.90;;;20.90;99.90;;;;;;5013124;28;20024;-73
2022/07/29 06:53:24;;;;;;;1999.90;999.90;;;20.80;99.90;;;;;;5012164;28;20535;-73
2022/07/29 06:55:50;;;;;;;1999.90;999.90;;;20.80;99.90;;;;;;5001808;28;20053;-75
2022/07/29 06:58:17;;;;;;;1999.90;999.90;;;20.70;99.90;;;;;;5009639;28;20021;-73
2022/07/29 07:00:44;;;;;;;1999.90;999.90;;;20.60;99.90;;;;;;5010966;28;20452;-73
2022/07/29 07:03:10;;;;;;;1999.90;999.90;;;20.50;99.90;;;;;;5011333;28;20018;-73
2022/07/29 07:05:36;;;;;;;1999.90;999.90;;;20.50;99.90;;;;;;5012916;28;20503;-75
2022/07/29 07:08:02;;;;;;;1999.90;999.90;;;20.60;99.90;;;;;;5010609;28;20018;-75
2022/07/29 07:10:29;;;;;;;1999.90;999.90;;;20.60;99.90;;;;;;5011355;28;20049;-75
2022/07/29 07:12:54;;;;;;;1999.90;999.90;;;20.70;99.90;;;;;;5010787;28;20412;-73
2022/07/29 07:15:23;;;;;;;1999.90;999.90;;;20.70;99.90;;;;;;5011028;28;20026;-74
2022/07/29 07:17:49;;;;;;;1999.90;999.90;;;20.90;99.90;;;;;;5010311;28;20444;-73
2022/07/29 07:20:15;;;;;;;1999.90;999.90;;;21.00;99.90;;;;;;5012414;28;20033;-75
2022/07/29 07:22:41;;;;;;;1999.90;999.90;;;20.80;99.90;;;;;;5012625;28;20470;-75
2022/07/29 07:25:07;;;;;;;1999.90;999.90;;;21.10;99.90;;;;;;5012463;28;20041;-73
2022/07/29 07:27:33;;;;;;;1999.90;999.90;;;21.30;99.90;;;;;;5010215;28;20026;-73
2022/07/29 07:29:59;;;;;;;1999.90;999.90;;;21.40;99.90;;;;;;5010336;28;20030;-73
2022/07/29 07:32:24;;;;;;;1999.90;999.90;;;21.50;99.90;;;;;;5009654;28;20058;-73
2022/07/29 07:34:50;;;;;;;1999.90;999.90;;;21.50;99.90;;;;;;5009878;28;20087;-74
2022/07/29 07:37:16;;;;;;;1999.90;999.90;;;21.60;99.90;;;;;;5010323;28;20026;-76
2022/07/29 07:39:42;;;;;;;1999.90;999.90;;;21.30;99.90;;;;;;5011822;28;20045;-73
2022/07/29 07:42:10;;;;;;;1999.90;999.90;;;21.40;99.90;;;;;;5012304;28;20478;-73
2022/07/29 07:44:35;;;;;;;1999.90;999.90;;;21.40;99.90;;;;;;5012539;28;20026;-75
2022/07/29 07:47:01;;;;;;;1999.90;999.90;;;21.50;99.90;;;;;;5012246;28;20049;-76
2022/07/29 07:49:26;;;;;;;1999.90;999.90;;;21.60;99.90;;;;;;5011415;28;20053;-75
2022/07/29 07:51:52;;;;;;;1999.90;999.90;;;21.70;99.90;;;;;;5012432;28;20058;-74
2022/07/29 07:54:18;;;;;;;1999.90;999.90;;;21.80;99.90;;;;;;5015978;28;20512;-73
2022/07/29 07:56:43;;;;;;;1999.90;999.90;;;21.80;99.90;;;;;;5015587;28;20022;-76
2022/07/29 07:59:09;;;;;;;1999.90;999.90;;;22.00;99.90;;;;;;5015977;28;20029;-73
2022/07/29 08:01:34;;;;;;;1999.90;999.90;;;22.10;99.90;;;;;;5016240;28;20124;-75
2022/07/29 08:04:00;;;;;;;1999.90;999.90;;;22.20;99.90;;;;;;5015682;28;20055;-76
2022/07/29 08:06:26;;;;;;;1999.90;999.90;;;22.20;99.90;;;;;;5014986;28;20029;-73
2022/07/29 08:08:51;;;;;;;1999.90;999.90;;;22.30;99.90;;;;;;4995989;28;20058;-76
2022/07/29 08:11:17;;;;;;;1999.90;999.90;;;22.50;99.90;;;;;;4998201;28;20123;-75
2022/07/29 08:13:43;;;;;;;1999.90;999.90;;;23.00;99.90;;;;;;5013571;28;20101;-73
2022/07/29 08:16:12;;;;;;;1999.90;999.90;;;23.50;99.90;;;;;;5015169;28;20026;-75
2022/07/29 08:18:39;;;;;;;1999.90;999.90;;;24.20;99.90;;;;;;5013970;28;20025;-73
2022/07/29 08:21:05;;;;;;;1999.90;999.90;;;26.00;99.90;;;;;;5015616;28;20048;-74
2022/07/29 08:23:38;;;;;;;1999.90;999.90;;;25.70;98.80;;;;;;5015245;28;20488;-75
2022/07/29 08:26:10;;;;;;;1999.90;999.90;;;25.80;99.20;;;;;;5014079;28;20038;-75
2022/07/29 08:28:38;;;;;;;1999.90;999.90;;;25.80;98.90;;;;;;5009853;28;20392;-76
2022/07/29 08:31:04;;;;;;;1999.90;999.90;;;25.20;99.30;;;;;;5014536;28;20082;-76
2022/07/29 08:33:29;;;;;;;1999.90;999.90;;;25.10;99.00;;;;;;5014737;28;20030;-74
2022/07/29 08:35:55;;;;;;;1999.90;999.90;;;25.50;99.00;;;;;;5015645;28;20037;-76
2022/07/29 08:38:21;;;;;;;1999.90;999.90;;;26.60;98.40;;;;;;5005798;28;20097;-77
2022/07/29 08:40:46;;;;;;;1999.90;999.90;;;29.00;94.80;;;;;;5013339;28;20062;-76
2022/07/29 08:43:12;;;;;;;1999.90;999.90;;;30.50;92.70;;;;;;5013497;28;20508;-76
2022/07/29 08:45:45;;;;;;;1999.90;999.90;;;29.40;92.70;;;;;;5013674;28;20100;-74
2022/07/29 08:48:14;;;;;;;;;;;28.50;94.20;;;;;;5014339;28;20076;-74
2022/07/29 08:50:41;;;;;;;1999.90;999.90;;;29.90;93.10;;;;;;5014374;28;20329;-77
2022/07/29 08:53:10;;;;;;;1999.90;999.90;;;31.20;91.20;;;;;;5014195;28;20022;-74
2022/07/29 08:55:42;;;;;;;1999.90;999.90;;;31.40;91.70;;;;;;5012583;28;20061;-77
2022/07/29 08:58:09;;;;;;;1999.90;999.90;;;31.20;90.50;;;;;;5006218;28;20020;-74
2022/07/29 09:00:40;;;;;;;1999.90;999.90;;;29.40;92.60;;;;;;5014211;28;20041;-77
2022/07/29 09:03:09;;;;;;;1999.90;999.90;;;29.20;92.40;;;;;;5007355;28;20025;-76
2022/07/29 09:05:35;;;;;;;1999.90;999.90;;;27.50;94.20;;;;;;5013549;28;20037;-77
2022/07/29 09:08:01;;;;;;;1999.90;999.90;;;27.60;94.20;;;;;;5013659;28;20025;-74
2022/07/29 09:10:27;;;;;;;1999.90;999.90;;;27.00;94.70;;;;;;5013009;28;20449;-73
2022/07/29 09:12:55;;;;;;;1999.90;999.90;;;27.10;94.90;;;;;;5014258;28;20105;-74
2022/07/29 09:15:20;;;;;;;1999.90;999.90;;;27.50;94.20;;;;;;5013451;28;20052;-76
2022/07/29 09:17:48;;;;;;;1999.90;999.90;;;28.30;93.50;;;;;;5011545;28;20508;-76
2022/07/29 09:20:20;;;;;;;1999.90;999.90;;;27.40;93.30;;;;;;5006578;28;20030;-74
2022/07/29 09:22:49;;;;;;;1999.90;999.90;;;27.10;94.60;;;;;;5014061;28;20508;-74
2022/07/29 09:25:37;;;;;;;1999.90;999.90;;;27.20;94.70;;;;;;5013633;28;20034;-75
2022/07/29 09:28:10;;;;;;;1999.90;999.90;;;29.10;92.70;;;;;;5007927;28;20026;-75
2022/07/29 09:30:57;;;;;;;1999.90;999.90;;;31.80;91.10;;;;;;5013470;28;20034;-76
2022/07/29 09:33:31;;;;;;;1999.90;999.90;;;33.70;89.60;;;;;;5019216;28;20107;-75
2022/07/29 09:36:04;;;;;;;1999.90;999.90;;;32.90;90.30;;;;;;5006391;28;20123;-75
2022/07/29 09:38:31;;;;;;;1999.90;999.90;;;33.10;90.10;;;;;;5013518;28;20076;-75
2022/07/29 09:41:02;;;;;;;1999.90;999.90;;;33.60;88.50;;;;;;5013023;28;20100;-74
2022/07/29 09:43:28;;;;;;;1999.90;999.90;;;33.00;88.90;;;;;;5013019;28;20037;-73
2022/07/29 09:45:54;;;;;;;1999.90;999.90;;;32.60;90.10;;;;;;5012175;28;20030;-74
2022/07/29 09:48:25;;;;;;;1999.90;999.90;;;33.10;88.70;;;;;;5013502;28;20486;-75
2022/07/29 09:50:52;;;;;;;1999.90;999.90;;;31.30;91.50;;;;;;5012714;28;20034;-75
2022/07/29 09:53:36;;;;;;;1999.90;999.90;;;30.20;92.20;;;;;;5013254;28;20030;-75
2022/07/29 09:56:02;;;;;;;1999.90;999.90;;;29.70;92.40;;;;;;5012237;28;20022;-75
2022/07/29 09:58:28;;;;;;;1999.90;999.90;;;30.30;92.20;;;;;;5010872;28;20022;-75
2022/07/29 10:00:54;;;;;;;1999.90;999.90;;;29.70;92.50;;;;;;5013360;28;20022;-76
2022/07/29 10:03:21;;;;;;;1999.90;999.90;;;29.90;92.60;;;;;;5012050;28;20392;-75
2022/07/29 10:06:08;;;;;;;1999.90;999.90;;;30.10;92.50;;;;;;5012724;28;20030;-76
2022/07/29 10:08:34;;;;;;;1999.90;999.90;;;30.80;91.80;;;;;;5012890;28;20026;-76
2022/07/29 10:11:19;;;;;;;1999.90;999.90;;;30.00;92.40;;;;;;5012820;28;20416;-75
2022/07/29 10:13:46;;;;;;;1999.90;999.90;;;29.90;92.80;;;;;;5011808;28;20451;-76
2022/07/29 10:16:13;;;;;;;1999.90;999.90;;;29.40;92.80;;;;;;5012232;28;20022;-75
2022/07/29 10:18:43;;;;;;;1999.90;999.90;;;28.60;94.00;;;;;;5011513;28;20026;-74
2022/07/29 10:21:09;;;;;;;1999.90;999.90;;;28.30;94.50;;;;;;5012614;28;20026;-76
2022/07/29 10:23:36;;;;;;;1999.90;999.90;;;28.20;94.50;;;;;;5011351;28;20052;-76
2022/07/29 10:26:03;;;;;;;1999.90;999.90;;;28.50;94.30;;;;;;5010634;28;20026;-76
2022/07/29 10:28:31;;;;;;;1999.90;999.90;;;29.20;93.70;;;;;;5011910;28;20037;-75
2022/07/29 10:31:06;;;;;;;1999.90;999.90;;;29.40;93.60;;;;;;5012178;28;20053;-76
2022/07/29 10:34:07;;;;;;;1999.90;999.90;;;29.30;93.00;;;;;;5008275;28;20109;-75
2022/07/29 10:36:54;;;;;;;1999.90;999.90;;;29.90;93.10;;;;;;4947086;28;20042;-75
2022/07/29 10:39:42;;;;;;;1999.90;999.90;;;30.20;92.80;;;;;;5012518;28;20401;-76
2022/07/29 10:42:24;;;;;;;1999.90;999.90;;;29.70;93.00;;;;;;5012726;28;20562;-74
2022/07/29 10:44:51;;;;;;;1999.90;999.90;;;29.00;93.60;;;;;;5011970;28;20551;-75
2022/07/29 10:47:24;;;;;;;1999.90;999.90;;;28.60;94.10;;;;;;5013010;28;20052;-75
2022/07/29 10:50:19;;;;;;;1999.90;999.90;;;29.60;93.30;;;;;;5013124;28;20025;-76
2022/07/29 10:52:54;;;;;;;1999.90;999.90;;;29.00;93.70;;;;;;5003285;28;20038;-76
2022/07/29 10:55:48;;;;;;;1999.90;999.90;;;28.10;94.30;;;;;;5010415;28;20059;-74
2022/07/29 10:58:15;;;;;;;1999.90;999.90;;;27.60;95.00;;;;;;5002292;28;20121;-76
2022/07/29 11:00:41;;;;;;;1999.90;999.90;;;27.90;94.60;;;;;;5003668;28;20044;-76
2022/07/29 11:03:06;;;;;;;1999.90;999.90;;;27.90;94.60;;;;;;5008086;28;20564;-76
2022/07/29 11:05:52;;;;;;;1999.90;999.90;;;28.20;94.50;;;;;;5011816;28;20501;-76
2022/07/29 11:08:23;;;;;;;1999.90;999.90;;;28.90;93.70;;;;;;5012088;28;20056;-75
2022/07/29 11:11:12;;;;;;;1999.90;999.90;;;28.50;94.00;;;;;;5011963;28;20038;-76
2022/07/29 11:13:47;;;;;;;1999.90;999.90;;;28.60;94.10;;;;;;5011317;28;20401;-77
2022/07/29 11:16:14;;;;;;;1999.90;999.90;;;28.50;93.90;;;;;;5012370;28;20497;-76
2022/07/29 11:19:10;;;;;;;1999.90;999.90;;;28.40;94.30;;;;;;5011490;28;20030;-76
2022/07/29 11:21:38;;;;;;;1999.90;999.90;;;28.20;94.40;;;;;;5011811;28;20029;-75
2022/07/29 11:24:18;;;;;;;1999.90;999.90;;;28.60;93.70;;;;;;5010045;28;20120;-76
2022/07/29 11:26:45;;;;;;;1999.90;999.90;;;28.00;94.30;;;;;;5010093;28;20536;-76
2022/07/29 11:29:23;;;;;;;1999.90;999.90;;;27.50;94.10;;;;;;5012345;28;20018;-75
2022/07/29 11:31:54;;;;;;;1999.90;999.90;;;27.30;94.50;;;;;;5012018;28;20022;-76
2022/07/29 11:34:33;;;;;;;1999.90;999.90;;;27.40;94.40;;;;;;5012050;28;20496;-75
2022/07/29 11:39:34;;;;;;;1999.90;999.90;;;27.50;94.30;;;;;;5012165;28;20504;-76
2022/07/29 11:42:24;;;;;;;1999.90;999.90;;;27.40;94.60;;;;;;5011519;28;20062;-76
2022/07/29 11:45:07;;;;;;;1999.90;999.90;;;27.90;94.70;;;;;;5009100;28;20030;-76
2022/07/29 11:47:40;;;;;;;1999.90;999.90;;;27.30;94.50;;;;;;5006133;28;20038;-75
2022/07/29 11:50:13;;;;;;;1999.90;999.90;;;26.90;95.40;;;;;;5011215;28;20477;-76
2022/07/29 11:52:44;;;;;;;1999.90;999.90;;;26.60;96.00;;;;;;5011491;28;20505;-75
2022/07/29 11:55:12;;;;;;;1999.90;999.90;;;25.60;97.00;;;;;;5011505;28;20026;-76
2022/07/29 11:57:55;;;;;;;1999.90;999.90;;;25.50;97.20;;;;;;5009780;28;20489;-79
2022/07/29 12:00:38;;;;;;;;;;;25.50;97.30;;;;;;5004575;28;20431;-75
2022/07/29 12:03:08;;;;;;;1999.90;999.90;;;25.10;97.80;;;;;;5011207;28;19913;-76
2022/07/29 12:05:38;;;;;;;1999.90;999.90;;;24.90;97.70;;;;;;5011729;28;20033;-75
2022/07/29 12:08:25;;;;;;;1999.90;999.90;;;25.20;97.60;;;;;;4997763;28;20034;-76
2022/07/29 12:10:52;;;;;;;1999.90;999.90;;;25.50;96.70;;;;;;4991423;28;20430;-75
2022/07/29 12:13:20;;;;;;;1999.90;999.90;;;25.30;96.80;;;;;;5010831;28;20508;-76
2022/07/29 12:15:53;;;;;;;1999.90;999.90;;;25.80;96.70;;;;;;5011168;28;20052;-76
2022/07/29 12:18:20;;;;;;;1999.90;999.90;;;26.20;95.80;;;;;;5011412;28;20485;-74